logo dgac
Lunes 19 de Abril del 2021
Buscar por aerodromo o helipuerto
Ingrese nombre de aeródromo, localidad o designador OACI:
METAR del 19-04-2021 a las 13:00 UTC
Para mayor información visite www.meteochile.cl
METAR SCEL 191300Z VRB02KT 5000 BR NSC 11/09 Q1015 NOSIG
Viento: dirección variable, velocidad 2 nudos
Visibilidad: 5000 metros
Neblina
Sin nubes bajo los 5000 pies o bajo del MSA (Mínimo de Seguridad del Aeródromo)
Temperatura: 11 °C
Rocío: 9 °C
Humedad_relativa: 87%
Presión: 1015 hPa
No se esperan cambios significativos en las próximas 2 horas